createdAt,value
2023-05-23T00:00:53.281Z,95.64
2023-05-23T00:02:26.273Z,96.95
2023-05-23T00:04:00.065Z,99.80
2023-05-23T00:05:33.755Z,100.00
2023-05-23T00:07:07.028Z,100.00
2023-05-23T00:08:40.359Z,100.00
2023-05-23T00:10:14.830Z,100.00
2023-05-23T00:11:48.425Z,100.00
2023-05-23T00:13:22.056Z,98.85
2023-05-23T00:14:55.858Z,97.79
2023-05-23T00:16:30.934Z,97.31
2023-05-23T00:18:05.333Z,97.59
2023-05-23T00:19:41.834Z,97.17
2023-05-23T00:21:15.308Z,97.22
2023-05-23T00:22:49.888Z,93.67
2023-05-23T00:24:23.872Z,92.09
2023-05-23T00:25:59.030Z,92.29
2023-05-23T00:27:32.400Z,91.80
2023-05-23T00:29:06.228Z,92.11
2023-05-23T00:30:40.104Z,91.21
2023-05-23T00:32:13.604Z,90.00
2023-05-23T00:33:47.074Z,88.85
2023-05-23T00:35:27.034Z,88.82
2023-05-23T00:37:00.559Z,87.95
2023-05-23T00:38:34.394Z,88.17
2023-05-23T00:40:08.666Z,87.68
2023-05-23T00:41:42.236Z,88.65
2023-05-23T00:43:16.903Z,88.03
2023-05-23T00:44:50.550Z,87.33
2023-05-23T00:46:24.106Z,89.09
2023-05-23T00:47:59.860Z,90.58
2023-05-23T00:49:33.976Z,88.71
2023-05-23T00:51:07.615Z,87.04
2023-05-23T00:52:41.820Z,85.17
2023-05-23T00:54:17.500Z,85.49
2023-05-23T00:55:51.958Z,84.34
2023-05-23T00:57:26.464Z,85.57
2023-05-23T00:59:01.259Z,84.48
2023-05-23T01:00:36.090Z,83.05
2023-05-23T01:02:10.170Z,80.79
2023-05-23T01:03:46.128Z,79.29
2023-05-23T01:05:23.077Z,78.34
2023-05-23T01:06:57.133Z,75.92
2023-05-23T01:08:30.638Z,73.68
2023-05-23T01:10:05.795Z,72.21
2023-05-23T01:12:03.222Z,70.88
2023-05-23T01:13:57.938Z,69.89
2023-05-23T01:15:46.692Z,66.49
2023-05-23T01:17:42.449Z,64.45
2023-05-23T01:19:16.278Z,63.27
2023-05-23T01:21:00.212Z,63.74
2023-05-23T01:23:01.430Z,62.15
2023-05-23T01:24:55.688Z,60.34
2023-05-23T01:26:42.956Z,58.36
2023-05-23T01:28:20.679Z,54.33
2023-05-23T01:29:59.608Z,52.93
2023-05-23T01:31:35.490Z,51.91
2023-05-23T01:33:10.134Z,51.02
2023-05-23T01:34:44.358Z,50.54
2023-05-23T01:36:18.369Z,48.02
2023-05-23T01:37:53.198Z,49.05
2023-05-23T01:39:26.864Z,48.35
2023-05-23T01:41:00.280Z,46.12
2023-05-23T01:42:33.778Z,46.05
2023-05-23T01:44:08.346Z,45.88
2023-05-23T01:45:42.492Z,44.91
2023-05-23T01:47:17.073Z,44.86
2023-05-23T01:48:52.355Z,44.24
2023-05-23T01:50:26.269Z,44.38
2023-05-23T01:52:02.357Z,43.61
2023-05-23T01:53:37.585Z,42.94
2023-05-23T01:55:12.799Z,41.85
2023-05-23T01:56:46.897Z,42.53
2023-05-23T01:58:20.676Z,41.42
2023-05-23T01:59:54.068Z,41.67
2023-05-23T02:01:27.705Z,40.88
2023-05-23T02:03:01.112Z,40.07
2023-05-23T02:04:35.400Z,40.28
2023-05-23T02:06:09.125Z,39.22
2023-05-23T02:07:43.270Z,39.07
2023-05-23T02:09:17.272Z,38.89
2023-05-23T02:10:51.691Z,38.48
2023-05-23T02:12:27.489Z,37.90
2023-05-23T02:14:01.586Z,37.70
2023-05-23T02:15:35.844Z,37.56
2023-05-23T02:17:12.831Z,37.11
2023-05-23T02:18:47.719Z,36.25
2023-05-23T02:20:21.628Z,36.94
2023-05-23T02:21:55.056Z,36.59
2023-05-23T02:23:28.387Z,35.77
2023-05-23T02:25:01.899Z,34.50
2023-05-23T02:26:36.046Z,33.79
2023-05-23T02:28:09.627Z,33.19
2023-05-23T02:29:43.317Z,33.82
2023-05-23T02:31:17.776Z,33.76
2023-05-23T02:32:52.409Z,34.53
2023-05-23T02:34:26.240Z,34.14
2023-05-23T02:35:59.929Z,33.34
2023-05-23T02:37:33.428Z,33.55
2023-05-23T02:39:07.681Z,32.06
2023-05-23T02:40:41.394Z,31.34
2023-05-23T02:42:15.087Z,31.59
2023-05-23T02:43:48.646Z,30.65
2023-05-23T02:45:23.220Z,31.08
2023-05-23T02:46:56.519Z,29.91
2023-05-23T02:48:29.935Z,29.80
2023-05-23T02:50:03.755Z,29.52
2023-05-23T02:51:38.135Z,29.26
2023-05-23T02:53:11.843Z,29.60
2023-05-23T02:54:45.649Z,30.17
2023-05-23T02:56:19.519Z,30.77
2023-05-23T02:57:53.415Z,31.02
2023-05-23T02:59:27.450Z,30.96
2023-05-23T03:01:01.471Z,31.05
2023-05-23T03:02:35.821Z,30.46
2023-05-23T03:04:09.440Z,29.97
2023-05-23T03:05:43.323Z,29.58
2023-05-23T03:07:27.403Z,28.75
2023-05-23T03:09:02.448Z,29.16
2023-05-23T03:10:36.675Z,29.07
2023-05-23T03:12:10.400Z,29.32
2023-05-23T03:13:44.136Z,28.38
2023-05-23T03:15:17.424Z,28.04
2023-05-23T03:16:51.711Z,28.15
2023-05-23T03:18:24.969Z,28.00
2023-05-23T03:19:58.465Z,27.97
2023-05-23T03:21:33.310Z,28.06
2023-05-23T03:23:06.870Z,27.94
2023-05-23T03:24:40.437Z,27.66
2023-05-23T03:26:14.505Z,27.75
2023-05-23T03:27:47.936Z,27.66
2023-05-23T03:29:21.688Z,27.75
2023-05-23T03:30:55.083Z,27.09
2023-05-23T03:32:28.779Z,26.50
2023-05-23T03:34:02.970Z,26.91
2023-05-23T03:35:36.694Z,27.19
2023-05-23T03:37:10.576Z,26.48
2023-05-23T03:38:44.721Z,26.21
2023-05-23T03:40:18.436Z,26.40
2023-05-23T03:41:52.717Z,26.60
2023-05-23T03:43:26.693Z,25.79
2023-05-23T03:45:00.437Z,26.75
2023-05-23T03:46:35.287Z,25.64
2023-05-23T03:48:09.515Z,25.30
2023-05-23T03:49:42.989Z,24.84
2023-05-23T03:51:16.586Z,24.30
2023-05-23T03:52:49.922Z,24.47
2023-05-23T03:54:23.547Z,24.47
2023-05-23T03:55:58.704Z,24.90
2023-05-23T03:57:32.984Z,24.17
2023-05-23T03:59:06.804Z,23.51
2023-05-23T04:00:40.303Z,23.70
2023-05-23T04:02:15.099Z,24.04
2023-05-23T04:03:50.035Z,23.54
2023-05-23T04:05:27.395Z,23.11
2023-05-23T04:07:02.074Z,23.07
2023-05-23T04:08:35.796Z,23.33
2023-05-23T04:10:10.311Z,23.05
2023-05-23T04:11:44.719Z,23.41
2023-05-23T04:13:18.051Z,22.91
2023-05-23T04:14:51.096Z,23.62
2023-05-23T04:16:29.425Z,23.51
2023-05-23T04:18:02.813Z,23.33
2023-05-23T04:19:36.600Z,22.97
2023-05-23T04:21:10.608Z,23.37
2023-05-23T04:22:51.030Z,23.74
2023-05-23T04:24:24.972Z,23.95
2023-05-23T04:25:58.773Z,24.22
2023-05-23T04:27:37.731Z,24.23
2023-05-23T04:29:14.970Z,24.15
2023-05-23T04:30:50.028Z,23.89
2023-05-23T04:32:27.929Z,23.79
2023-05-23T04:34:01.376Z,23.90
2023-05-23T04:35:39.472Z,23.24
2023-05-23T04:37:14.577Z,22.86
2023-05-23T04:38:48.121Z,23.66
2023-05-23T04:40:21.629Z,23.60
2023-05-23T04:42:24.971Z,23.43
2023-05-23T04:44:11.313Z,23.81
2023-05-23T04:45:54.851Z,23.61
2023-05-23T04:47:37.792Z,23.81
2023-05-23T04:49:15.661Z,23.91
2023-05-23T04:50:51.630Z,23.36
2023-05-23T04:52:26.263Z,24.23
2023-05-23T04:54:00.424Z,23.51
2023-05-23T04:55:34.632Z,23.33
2023-05-23T04:57:09.058Z,23.12
2023-05-23T04:58:42.578Z,23.28
2023-05-23T05:00:18.442Z,23.00
2023-05-23T05:01:52.155Z,23.03
2023-05-23T05:03:26.808Z,23.16
2023-05-23T05:05:00.399Z,23.80
2023-05-23T05:06:33.879Z,23.54
2023-05-23T05:08:07.385Z,23.75
2023-05-23T05:09:41.641Z,23.72
2023-05-23T05:11:17.690Z,23.79
2023-05-23T05:12:51.143Z,23.28
2023-05-23T05:14:27.131Z,23.54
2023-05-23T05:16:01.284Z,23.92
2023-05-23T05:17:37.317Z,24.02
2023-05-23T05:19:14.117Z,23.76
2023-05-23T05:20:47.783Z,23.60
2023-05-23T05:22:22.294Z,23.29
2023-05-23T05:23:55.742Z,23.27
2023-05-23T05:25:32.655Z,23.36
2023-05-23T05:27:06.688Z,23.08
2023-05-23T05:28:40.183Z,23.30
2023-05-23T05:30:14.072Z,23.70
2023-05-23T05:32:01.676Z,23.45
2023-05-23T05:33:38.207Z,23.92
2023-05-23T05:35:29.998Z,24.05
2023-05-23T05:37:03.337Z,24.35
2023-05-23T05:38:36.641Z,23.18
2023-05-23T05:40:10.764Z,23.36
2023-05-23T05:41:48.614Z,23.85
2023-05-23T05:43:22.961Z,23.58
2023-05-23T05:44:56.197Z,24.02
2023-05-23T05:46:29.665Z,23.85
2023-05-23T05:48:03.699Z,23.33
2023-05-23T05:49:37.582Z,23.20
2023-05-23T05:51:13.842Z,23.70
2023-05-23T05:52:48.956Z,22.90
2023-05-23T05:54:22.758Z,23.58
2023-05-23T05:55:56.868Z,23.14
2023-05-23T05:57:30.717Z,23.75
2023-05-23T05:59:04.524Z,24.11
2023-05-23T06:00:42.987Z,24.15
2023-05-23T06:02:17.188Z,23.48
2023-05-23T06:03:51.663Z,23.69
2023-05-23T06:05:27.361Z,23.53
2023-05-23T06:07:00.750Z,23.81
2023-05-23T06:08:35.781Z,24.47
2023-05-23T06:10:09.894Z,24.48
2023-05-23T06:11:43.024Z,23.99
2023-05-23T06:13:16.493Z,23.66
2023-05-23T06:14:53.486Z,23.93
2023-05-23T06:16:26.750Z,24.14
2023-05-23T06:18:00.302Z,23.36
2023-05-23T06:19:34.417Z,23.48
2023-05-23T06:21:08.027Z,23.98
2023-05-23T06:22:42.623Z,24.38
2023-05-23T06:24:16.184Z,24.42
2023-05-23T06:25:49.782Z,24.87
2023-05-23T06:27:23.027Z,25.17
2023-05-23T06:28:56.031Z,23.42
2023-05-23T06:30:30.344Z,23.47
2023-05-23T06:32:04.038Z,23.03
2023-05-23T06:33:37.199Z,23.70
2023-05-23T06:35:10.728Z,24.03
2023-05-23T06:36:44.017Z,24.01
2023-05-23T06:38:17.970Z,23.81
2023-05-23T06:39:51.447Z,23.24
2023-05-23T06:41:24.871Z,24.45
2023-05-23T06:43:00.033Z,24.42
2023-05-23T06:44:45.363Z,22.29
2023-05-23T06:46:18.776Z,22.90
2023-05-23T06:47:52.505Z,23.41
2023-05-23T06:49:26.489Z,24.02
2023-05-23T06:51:00.107Z,24.37
2023-05-23T06:52:34.356Z,24.60
2023-05-23T06:54:11.691Z,24.81
2023-05-23T06:55:45.589Z,24.64
2023-05-23T06:57:21.480Z,24.39
2023-05-23T06:58:55.407Z,24.51
2023-05-23T07:00:28.801Z,25.08
2023-05-23T07:02:19.394Z,24.56
2023-05-23T07:03:53.478Z,24.67
2023-05-23T07:05:28.643Z,24.91
2023-05-23T07:07:05.013Z,25.03
2023-05-23T07:08:39.648Z,23.14
2023-05-23T07:10:13.592Z,22.88
2023-05-23T07:11:47.336Z,22.98
2023-05-23T07:13:21.572Z,23.43
2023-05-23T07:14:55.252Z,23.47
2023-05-23T07:16:30.843Z,23.00
2023-05-23T07:18:09.187Z,23.55
2023-05-23T07:19:42.755Z,23.68
2023-05-23T07:21:16.672Z,24.22
2023-05-23T07:22:53.210Z,23.65
2023-05-23T07:24:26.509Z,24.23
2023-05-23T07:26:03.510Z,24.35
2023-05-23T07:27:47.879Z,24.63
2023-05-23T07:29:21.739Z,23.50
2023-05-23T07:30:58.829Z,24.80
2023-05-23T07:32:32.509Z,24.78
2023-05-23T07:34:06.245Z,24.38
2023-05-23T07:35:46.802Z,24.14
2023-05-23T07:37:20.147Z,23.54
2023-05-23T07:38:54.083Z,24.68
2023-05-23T07:40:27.675Z,24.33
2023-05-23T07:42:01.544Z,24.48
2023-05-23T07:43:34.720Z,24.50
2023-05-23T07:45:08.735Z,24.21
2023-05-23T07:46:47.134Z,23.82
2023-05-23T07:48:21.041Z,24.69
2023-05-23T07:49:54.841Z,23.69
2023-05-23T07:51:28.965Z,23.78
2023-05-23T07:53:02.460Z,23.78
2023-05-23T07:54:37.087Z,24.08
2023-05-23T07:56:14.523Z,23.96
2023-05-23T07:57:50.005Z,23.62
2023-05-23T07:59:23.927Z,23.67
2023-05-23T08:01:01.334Z,23.48
2023-05-23T08:02:54.312Z,23.87
2023-05-23T08:04:34.424Z,24.24
2023-05-23T08:06:09.339Z,23.85
2023-05-23T08:07:42.540Z,24.12
2023-05-23T08:09:17.309Z,22.35
2023-05-23T08:10:57.862Z,22.48
2023-05-23T08:12:36.262Z,23.75
2023-05-23T08:14:17.121Z,23.87
2023-05-23T08:16:00.563Z,23.46
2023-05-23T08:17:36.877Z,23.11
2023-05-23T08:19:10.386Z,23.51
2023-05-23T08:20:44.369Z,23.59
2023-05-23T08:22:17.783Z,22.90
2023-05-23T08:23:51.055Z,22.70
2023-05-23T08:25:25.542Z,22.05
2023-05-23T08:26:59.322Z,22.27
2023-05-23T08:28:35.083Z,23.26
2023-05-23T08:30:10.828Z,23.06
2023-05-23T08:31:44.845Z,22.80
2023-05-23T08:33:18.645Z,23.26
2023-05-23T08:34:54.429Z,23.72
2023-05-23T08:36:27.827Z,23.04
2023-05-23T08:38:02.409Z,24.21
2023-05-23T08:39:36.426Z,23.18
2023-05-23T08:41:31.897Z,22.69
2023-05-23T08:43:11.376Z,22.49
2023-05-23T08:44:48.385Z,23.26
2023-05-23T08:46:27.914Z,22.62
2023-05-23T08:48:02.869Z,22.49
2023-05-23T08:49:39.580Z,22.94
2023-05-23T08:51:16.368Z,22.55
2023-05-23T08:52:57.535Z,22.06
2023-05-23T08:54:33.087Z,21.95
2023-05-23T08:56:07.339Z,22.16
2023-05-23T08:57:48.572Z,22.17
2023-05-23T08:59:42.492Z,21.87
2023-05-23T09:01:18.683Z,21.68
2023-05-23T09:02:51.984Z,22.19
2023-05-23T09:04:44.143Z,22.83
2023-05-23T09:06:22.520Z,22.81
2023-05-23T09:07:57.123Z,22.70
2023-05-23T09:09:32.380Z,22.63
2023-05-23T09:11:09.313Z,23.12
2023-05-23T09:12:44.896Z,22.97
2023-05-23T09:14:18.671Z,22.66
2023-05-23T09:16:04.224Z,21.83
2023-05-23T09:17:43.877Z,21.92
2023-05-23T09:19:17.157Z,22.54
2023-05-23T09:20:56.997Z,21.87
2023-05-23T09:22:30.818Z,22.19
2023-05-23T09:24:08.579Z,22.62
2023-05-23T09:25:48.813Z,22.42
2023-05-23T09:27:22.740Z,23.10
2023-05-23T09:28:59.915Z,22.51
2023-05-23T09:30:35.092Z,22.73
2023-05-23T09:32:13.317Z,22.42
2023-05-23T09:33:49.044Z,21.79
2023-05-23T09:35:23.693Z,21.71
2023-05-23T09:36:57.489Z,22.12
2023-05-23T09:38:31.107Z,22.85
2023-05-23T09:40:13.780Z,22.49
2023-05-23T09:41:53.464Z,22.33
2023-05-23T09:43:29.826Z,22.37
2023-05-23T09:45:04.913Z,21.68
2023-05-23T09:46:41.572Z,22.46
2023-05-23T09:48:16.120Z,22.86
2023-05-23T09:49:51.834Z,22.10
2023-05-23T09:51:26.344Z,22.18
2023-05-23T09:53:00.987Z,22.24
2023-05-23T09:54:34.178Z,22.85
2023-05-23T09:56:12.250Z,23.04
2023-05-23T09:57:46.380Z,23.15
2023-05-23T09:59:24.804Z,23.18
2023-05-23T10:01:01.187Z,22.56
2023-05-23T10:03:15.231Z,22.41
2023-05-23T10:04:48.993Z,23.06
2023-05-23T10:06:25.055Z,22.81
2023-05-23T10:08:02.185Z,22.97
2023-05-23T10:09:38.683Z,22.78
2023-05-23T10:11:15.204Z,23.34
2023-05-23T10:12:56.287Z,23.42
2023-05-23T10:14:32.001Z,22.88
2023-05-23T10:16:44.277Z,22.76
2023-05-23T10:18:24.380Z,22.51
2023-05-23T10:20:12.762Z,22.57
2023-05-23T10:21:51.846Z,22.58
2023-05-23T10:23:25.281Z,23.33
2023-05-23T10:24:58.544Z,22.72
2023-05-23T10:26:32.258Z,22.73
2023-05-23T10:28:06.124Z,22.88
2023-05-23T10:29:39.775Z,22.48
2023-05-23T10:31:13.377Z,22.49
2023-05-23T10:32:47.527Z,22.46
2023-05-23T10:34:55.893Z,23.32
2023-05-23T10:36:42.898Z,22.85
2023-05-23T10:38:41.731Z,23.28
2023-05-23T10:40:32.751Z,22.49
2023-05-23T10:42:16.768Z,22.60
2023-05-23T10:44:02.997Z,22.74
2023-05-23T10:45:45.894Z,23.70
2023-05-23T10:47:29.282Z,22.85
2023-05-23T10:49:04.129Z,22.54
2023-05-23T10:50:37.740Z,23.27
2023-05-23T10:52:17.304Z,22.92
2023-05-23T10:53:55.591Z,22.85
2023-05-23T10:55:32.629Z,23.05
2023-05-23T10:57:06.670Z,23.37
2023-05-23T10:58:40.234Z,22.76
2023-05-23T11:00:16.379Z,23.09
2023-05-23T11:01:52.757Z,23.70
2023-05-23T11:03:51.968Z,23.40
2023-05-23T11:05:32.122Z,23.23
2023-05-23T11:07:05.454Z,23.00
2023-05-23T11:08:48.612Z,23.09
2023-05-23T11:10:22.250Z,23.32
2023-05-23T11:11:58.440Z,23.04
2023-05-23T11:14:09.752Z,23.35
2023-05-23T11:15:45.455Z,23.44
2023-05-23T11:17:20.451Z,23.01
2023-05-23T11:19:17.330Z,22.33
2023-05-23T11:20:54.539Z,22.65
2023-05-23T11:22:31.192Z,23.33
2023-05-23T11:24:04.629Z,24.14
2023-05-23T11:25:44.944Z,23.59
2023-05-23T11:27:26.452Z,23.09
2023-05-23T11:29:00.308Z,23.42
2023-05-23T11:30:34.290Z,23.21
2023-05-23T11:32:17.606Z,22.58
2023-05-23T11:33:55.004Z,22.65
2023-05-23T11:35:31.672Z,23.11
2023-05-23T11:37:08.696Z,23.02
2023-05-23T11:38:41.961Z,22.93
2023-05-23T11:40:33.258Z,23.17
2023-05-23T11:42:07.114Z,23.09
2023-05-23T11:43:53.420Z,23.41
2023-05-23T11:45:28.781Z,23.42
2023-05-23T11:47:07.301Z,23.27
2023-05-23T11:48:48.279Z,23.00
2023-05-23T11:50:21.705Z,22.97
2023-05-23T11:51:55.181Z,23.19
2023-05-23T11:53:29.359Z,23.01
2023-05-23T11:55:03.905Z,23.02
2023-05-23T11:56:41.235Z,23.04
2023-05-23T11:58:14.349Z,23.17
2023-05-23T11:59:47.790Z,22.88
2023-05-23T12:01:21.685Z,23.20
2023-05-23T12:02:54.813Z,23.33
2023-05-23T12:04:28.125Z,22.94
2023-05-23T12:06:02.776Z,22.73
2023-05-23T12:07:37.157Z,23.42
2023-05-23T12:09:13.406Z,22.80
2023-05-23T12:10:52.089Z,23.41
2023-05-23T12:12:25.387Z,23.51
2023-05-23T12:14:00.291Z,23.78
2023-05-23T12:15:33.539Z,23.23
2023-05-23T12:17:07.008Z,22.98
2023-05-23T12:18:40.461Z,23.30
2023-05-23T12:20:14.204Z,23.25
2023-05-23T12:21:49.096Z,23.42
2023-05-23T12:23:23.364Z,23.12
2023-05-23T12:24:57.370Z,23.50
2023-05-23T12:26:30.637Z,23.43
2023-05-23T12:28:04.113Z,23.35
2023-05-23T12:29:38.977Z,23.24
2023-05-23T12:31:19.391Z,23.45
2023-05-23T12:32:52.651Z,23.84
2023-05-23T12:34:26.036Z,23.38
2023-05-23T12:35:59.085Z,23.84
2023-05-23T12:37:32.420Z,24.36
2023-05-23T12:39:09.605Z,23.84
2023-05-23T12:40:42.863Z,23.97
2023-05-23T12:42:15.896Z,23.92
2023-05-23T12:43:53.797Z,23.82
2023-05-23T12:45:37.094Z,24.15
2023-05-23T12:47:13.719Z,23.95
2023-05-23T12:48:47.724Z,23.14
2023-05-23T12:50:21.213Z,23.66
2023-05-23T12:51:54.544Z,23.40
2023-05-23T12:53:28.277Z,23.69
2023-05-23T12:55:01.295Z,23.62
2023-05-23T12:56:34.661Z,23.42
2023-05-23T12:58:07.469Z,23.33
2023-05-23T12:59:40.456Z,23.51
2023-05-23T13:01:14.547Z,23.50
2023-05-23T13:02:48.515Z,23.47
2023-05-23T13:04:21.835Z,23.96
2023-05-23T13:05:55.099Z,23.96
2023-05-23T13:07:28.147Z,23.57
2023-05-23T13:09:01.463Z,24.00
2023-05-23T13:10:34.438Z,24.18
2023-05-23T13:12:07.690Z,23.63
2023-05-23T13:13:40.591Z,23.75
2023-05-23T13:15:13.923Z,23.60
2023-05-23T13:16:47.135Z,23.56
2023-05-23T13:18:20.384Z,23.48
2023-05-23T13:19:53.583Z,23.71
2023-05-23T13:21:28.064Z,23.34
2023-05-23T13:23:01.295Z,23.66
2023-05-23T13:24:36.590Z,23.60
2023-05-23T13:26:09.644Z,23.85
2023-05-23T13:27:42.847Z,23.80
2023-05-23T13:29:15.947Z,23.46
2023-05-23T13:30:49.386Z,23.94
2023-05-23T13:32:22.815Z,24.08
2023-05-23T13:33:56.715Z,24.57
2023-05-23T13:35:29.746Z,24.31
2023-05-23T13:37:02.721Z,24.56
2023-05-23T13:38:35.882Z,24.34
2023-05-23T13:40:12.767Z,24.14
2023-05-23T13:41:46.012Z,24.15
2023-05-23T13:43:19.048Z,24.26
2023-05-23T13:44:52.027Z,24.21
2023-05-23T13:46:25.527Z,24.23
2023-05-23T13:47:59.408Z,24.73
2023-05-23T13:49:32.843Z,24.23
2023-05-23T13:51:06.407Z,24.43
2023-05-23T13:52:43.466Z,25.06
2023-05-23T13:54:18.393Z,25.71
2023-05-23T13:55:52.371Z,25.43
2023-05-23T13:57:25.879Z,25.86
2023-05-23T13:59:00.365Z,25.30
2023-05-23T14:00:33.755Z,25.41
2023-05-23T14:02:08.543Z,25.06
2023-05-23T14:03:42.758Z,25.36
2023-05-23T14:05:17.217Z,25.55
2023-05-23T14:06:51.461Z,26.04
2023-05-23T14:08:24.566Z,25.98
2023-05-23T14:09:58.236Z,26.01
2023-05-23T14:11:32.185Z,25.71
2023-05-23T14:13:07.464Z,25.89
2023-05-23T14:14:41.326Z,26.04
2023-05-23T14:16:14.814Z,25.95
2023-05-23T14:17:49.357Z,25.95
2023-05-23T14:19:22.988Z,25.29
2023-05-23T14:20:56.401Z,25.31
2023-05-23T14:22:29.780Z,24.65
2023-05-23T14:24:03.720Z,24.59
2023-05-23T14:25:37.350Z,24.87
2023-05-23T14:27:11.400Z,24.96
2023-05-23T14:28:45.099Z,24.74
2023-05-23T14:30:19.473Z,25.05
2023-05-23T14:31:53.045Z,25.04
2023-05-23T14:33:26.840Z,24.73
2023-05-23T14:35:00.542Z,25.09
2023-05-23T14:36:34.171Z,25.28
2023-05-23T14:38:07.560Z,25.33
2023-05-23T14:39:41.428Z,25.47
2023-05-23T14:41:15.057Z,25.45
2023-05-23T14:42:51.679Z,25.45
2023-05-23T14:44:25.154Z,25.28
2023-05-23T14:46:00.495Z,25.13
2023-05-23T14:47:34.351Z,25.24
2023-05-23T14:49:08.301Z,25.35
2023-05-23T14:50:43.070Z,25.44
2023-05-23T14:52:17.884Z,25.42
2023-05-23T14:53:51.896Z,25.56
2023-05-23T14:55:26.649Z,25.73
2023-05-23T14:57:00.146Z,25.62
2023-05-23T14:58:34.047Z,25.79
2023-05-23T15:00:08.456Z,25.67
2023-05-23T15:01:44.745Z,25.76
2023-05-23T15:03:19.037Z,25.92
2023-05-23T15:04:52.879Z,26.80
2023-05-23T15:06:26.184Z,26.82
2023-05-23T15:07:59.477Z,26.76
2023-05-23T15:09:32.855Z,26.65
2023-05-23T15:11:06.392Z,26.69
2023-05-23T15:12:39.910Z,26.64
2023-05-23T15:14:13.883Z,26.56
2023-05-23T15:15:49.731Z,26.73
2023-05-23T15:17:26.606Z,26.93
2023-05-23T15:19:01.157Z,26.85
2023-05-23T15:20:35.911Z,27.01
2023-05-23T15:22:15.812Z,26.82
2023-05-23T15:23:56.403Z,27.06
2023-05-23T15:25:47.190Z,27.09
2023-05-23T15:27:24.995Z,27.12
2023-05-23T15:28:58.688Z,27.15
2023-05-23T15:30:36.778Z,27.39
2023-05-23T15:32:13.309Z,27.73
2023-05-23T15:33:48.501Z,27.81
2023-05-23T15:35:23.295Z,27.87
2023-05-23T15:36:57.059Z,27.69
2023-05-23T15:38:30.476Z,27.72
2023-05-23T15:40:04.478Z,27.79
2023-05-23T15:41:38.094Z,27.92
2023-05-23T15:43:11.758Z,27.96
2023-05-23T15:44:45.189Z,28.05
2023-05-23T15:46:19.445Z,28.09
2023-05-23T15:47:53.031Z,28.35
2023-05-23T15:49:27.356Z,28.59
2023-05-23T15:51:01.611Z,28.57
2023-05-23T15:52:35.300Z,28.35
2023-05-23T15:54:09.048Z,28.39
2023-05-23T15:55:42.956Z,28.62
2023-05-23T15:57:16.727Z,28.35
2023-05-23T15:58:50.028Z,28.56
2023-05-23T16:00:23.524Z,28.83
2023-05-23T16:01:57.502Z,28.71
2023-05-23T16:03:30.854Z,29.00
2023-05-23T16:05:04.502Z,29.09
2023-05-23T16:06:39.765Z,29.69
2023-05-23T16:08:13.107Z,29.36
2023-05-23T16:09:46.508Z,29.41
2023-05-23T16:11:20.292Z,29.37
2023-05-23T16:12:53.976Z,29.63
2023-05-23T16:14:27.240Z,30.04
2023-05-23T16:16:00.521Z,29.66
2023-05-23T16:17:34.341Z,29.73
2023-05-23T16:19:07.830Z,30.03
2023-05-23T16:20:41.198Z,29.95
2023-05-23T16:22:14.603Z,30.23
2023-05-23T16:23:49.643Z,30.06
2023-05-23T16:25:23.819Z,30.19
2023-05-23T16:26:57.253Z,30.44
2023-05-23T16:28:30.859Z,30.55
2023-05-23T16:30:05.318Z,30.50
2023-05-23T16:31:39.533Z,30.47
2023-05-23T16:33:12.876Z,30.43
2023-05-23T16:34:52.675Z,30.57
2023-05-23T16:36:28.889Z,30.48
2023-05-23T16:38:02.194Z,30.58
2023-05-23T16:39:35.603Z,30.71
2023-05-23T16:41:09.037Z,30.72
2023-05-23T16:42:42.747Z,30.61
2023-05-23T16:44:16.360Z,30.68
2023-05-23T16:45:50.033Z,30.63
2023-05-23T16:47:23.816Z,30.79
2023-05-23T16:48:57.920Z,30.86
2023-05-23T16:50:31.261Z,30.95
2023-05-23T16:52:04.735Z,31.27
2023-05-23T16:53:38.074Z,31.82
2023-05-23T16:55:11.843Z,31.35
2023-05-23T16:56:45.406Z,31.43
2023-05-23T16:58:20.944Z,31.50
2023-05-23T16:59:54.705Z,31.53
2023-05-23T17:01:30.774Z,31.23
2023-05-23T17:03:05.166Z,31.54
2023-05-23T17:04:38.623Z,31.97
2023-05-23T17:06:11.846Z,32.12
2023-05-23T17:07:45.771Z,32.12
2023-05-23T17:09:19.736Z,32.08
2023-05-23T17:10:53.664Z,32.16
2023-05-23T17:12:27.183Z,32.34
2023-05-23T17:14:00.659Z,32.24
2023-05-23T17:15:33.908Z,32.06
2023-05-23T17:17:07.195Z,31.67
2023-05-23T17:18:40.515Z,31.59
2023-05-23T17:20:14.257Z,31.80
2023-05-23T17:21:47.848Z,31.57
2023-05-23T17:23:21.093Z,31.52
2023-05-23T17:24:54.246Z,31.37
2023-05-23T17:26:28.365Z,31.44
2023-05-23T17:28:01.632Z,31.40
2023-05-23T17:29:34.953Z,31.08
2023-05-23T17:31:08.850Z,30.45
2023-05-23T17:32:43.805Z,30.26
2023-05-23T17:34:17.385Z,30.12
2023-05-23T17:35:50.527Z,30.27
2023-05-23T17:37:26.211Z,30.32
2023-05-23T17:39:00.203Z,30.26
2023-05-23T17:40:33.553Z,30.56
2023-05-23T17:42:07.393Z,30.76
2023-05-23T17:43:43.243Z,30.96
2023-05-23T17:45:16.802Z,31.10
2023-05-23T17:46:50.111Z,30.94
2023-05-23T17:48:34.443Z,31.16
2023-05-23T17:50:12.442Z,31.07
2023-05-23T17:51:46.259Z,31.53
2023-05-23T17:53:20.249Z,31.49
2023-05-23T17:54:53.621Z,31.41
2023-05-23T17:56:26.744Z,31.49
2023-05-23T17:58:01.675Z,31.73
2023-05-23T17:59:35.287Z,32.04
2023-05-23T18:01:09.101Z,32.28
2023-05-23T18:02:42.870Z,32.07
2023-05-23T18:04:16.678Z,32.61
2023-05-23T18:05:50.531Z,32.75
2023-05-23T18:07:24.062Z,33.18
2023-05-23T18:08:57.607Z,33.31
2023-05-23T18:10:31.193Z,33.37
2023-05-23T18:12:05.407Z,33.40
2023-05-23T18:13:38.589Z,33.51
2023-05-23T18:15:12.396Z,33.49
2023-05-23T18:16:46.062Z,33.58
2023-05-23T18:18:19.446Z,33.62
2023-05-23T18:19:53.327Z,33.82
2023-05-23T18:21:30.264Z,33.73
2023-05-23T18:23:04.387Z,34.05
2023-05-23T18:24:38.414Z,33.96
2023-05-23T18:26:11.496Z,33.85
2023-05-23T18:27:45.123Z,33.93
2023-05-23T18:29:18.631Z,33.99
2023-05-23T18:30:52.179Z,33.85
2023-05-23T18:32:25.712Z,33.79
2023-05-23T18:33:59.454Z,34.12
2023-05-23T18:35:33.015Z,34.18
2023-05-23T18:37:06.434Z,34.02
2023-05-23T18:38:41.151Z,33.97
2023-05-23T18:40:15.302Z,33.87
2023-05-23T18:41:48.748Z,33.84
2023-05-23T18:43:23.518Z,33.91
2023-05-23T18:44:57.026Z,33.83
2023-05-23T18:46:30.875Z,34.00
2023-05-23T18:48:04.747Z,34.20
2023-05-23T18:49:38.558Z,34.39
2023-05-23T18:51:12.838Z,34.41
2023-05-23T18:52:46.652Z,34.40
2023-05-23T18:54:20.251Z,34.50
2023-05-23T18:55:53.745Z,34.76
2023-05-23T18:57:27.224Z,34.84
2023-05-23T18:59:00.917Z,35.10
2023-05-23T19:00:34.393Z,35.39
2023-05-23T19:02:07.876Z,35.79
2023-05-23T19:03:41.723Z,36.42
2023-05-23T19:05:15.026Z,36.49
2023-05-23T19:06:51.470Z,37.44
2023-05-23T19:08:24.690Z,37.17
2023-05-23T19:09:57.961Z,37.76
2023-05-23T19:11:30.858Z,37.88
2023-05-23T19:13:04.654Z,38.54
2023-05-23T19:14:37.966Z,39.06
2023-05-23T19:16:11.062Z,39.55
2023-05-23T19:17:44.541Z,39.92
2023-05-23T19:19:18.106Z,40.04
2023-05-23T19:20:55.121Z,39.97
2023-05-23T19:22:33.691Z,40.48
2023-05-23T19:24:17.356Z,40.84
2023-05-23T19:25:50.736Z,40.77
2023-05-23T19:27:24.747Z,41.33
2023-05-23T19:28:58.676Z,42.09
2023-05-23T19:30:31.813Z,42.12
2023-05-23T19:32:05.243Z,42.16
2023-05-23T19:33:38.640Z,41.97
2023-05-23T19:35:13.396Z,42.13
2023-05-23T19:36:49.498Z,42.45
2023-05-23T19:38:22.602Z,43.77
2023-05-23T19:39:55.621Z,44.45
2023-05-23T19:41:33.305Z,43.92
2023-05-23T19:43:06.868Z,45.24
2023-05-23T19:44:40.927Z,45.20
2023-05-23T19:46:15.945Z,46.41
2023-05-23T19:47:49.587Z,45.92
2023-05-23T19:49:23.221Z,46.75
2023-05-23T19:50:57.084Z,47.65
2023-05-23T19:52:30.259Z,48.02
2023-05-23T19:54:04.277Z,49.07
2023-05-23T19:55:37.945Z,48.77
2023-05-23T19:57:11.539Z,49.92
2023-05-23T19:58:44.855Z,50.69
2023-05-23T20:00:18.928Z,51.82
2023-05-23T20:01:52.702Z,52.68
2023-05-23T20:03:26.529Z,53.17
2023-05-23T20:04:59.898Z,53.76
2023-05-23T20:06:37.328Z,52.98
2023-05-23T20:08:11.318Z,52.10
2023-05-23T20:09:45.029Z,51.81
2023-05-23T20:11:18.629Z,51.66
2023-05-23T20:12:52.504Z,53.05
2023-05-23T20:14:28.107Z,53.32
2023-05-23T20:16:02.931Z,54.94
2023-05-23T20:17:36.617Z,54.70
2023-05-23T20:19:10.464Z,55.85
2023-05-23T20:20:45.662Z,54.81
2023-05-23T20:22:19.527Z,55.03
2023-05-23T20:23:56.256Z,55.65
2023-05-23T20:25:29.586Z,55.73
2023-05-23T20:27:03.373Z,55.14
2023-05-23T20:28:37.372Z,53.66
2023-05-23T20:30:12.523Z,53.25